sensor_id;sensor_type;location;lat;lon;timestamp;P1;durP1;ratioP1;P2;durP2;ratioP2
297;SDS011;133;49.626;9.680;2022-10-12T00:00:51;13.50;;;9.70;;
297;SDS011;133;49.626;9.680;2022-10-12T00:03:17;12.30;;;9.83;;
297;SDS011;133;49.626;9.680;2022-10-12T00:05:44;13.20;;;8.87;;
297;SDS011;133;49.626;9.680;2022-10-12T00:08:10;11.87;;;9.27;;
297;SDS011;133;49.626;9.680;2022-10-12T00:10:40;17.07;;;9.07;;
297;SDS011;133;49.626;9.680;2022-10-12T00:13:06;10.13;;;7.50;;
297;SDS011;133;49.626;9.680;2022-10-12T00:15:36;19.77;;;7.40;;
297;SDS011;133;49.626;9.680;2022-10-12T00:18:06;10.47;;;7.50;;
297;SDS011;133;49.626;9.680;2022-10-12T00:20:32;8.77;;;6.70;;
297;SDS011;133;49.626;9.680;2022-10-12T00:22:58;14.27;;;6.53;;
297;SDS011;133;49.626;9.680;2022-10-12T00:25:24;11.17;;;7.87;;
297;SDS011;133;49.626;9.680;2022-10-12T00:27:50;8.30;;;6.33;;
297;SDS011;133;49.626;9.680;2022-10-12T00:30:15;12.20;;;7.13;;
297;SDS011;133;49.626;9.680;2022-10-12T00:32:41;10.60;;;7.27;;
297;SDS011;133;49.626;9.680;2022-10-12T00:35:07;13.27;;;7.30;;
297;SDS011;133;49.626;9.680;2022-10-12T00:37:33;12.63;;;6.80;;
297;SDS011;133;49.626;9.680;2022-10-12T00:39:58;10.30;;;7.20;;
297;SDS011;133;49.626;9.680;2022-10-12T00:42:24;9.00;;;6.17;;
297;SDS011;133;49.626;9.680;2022-10-12T00:44:50;9.63;;;6.27;;
297;SDS011;133;49.626;9.680;2022-10-12T00:49:52;10.10;;;6.30;;
297;SDS011;133;49.626;9.680;2022-10-12T00:52:22;10.77;;;6.87;;
297;SDS011;133;49.626;9.680;2022-10-12T00:54:51;9.70;;;5.17;;
297;SDS011;133;49.626;9.680;2022-10-12T00:57:18;11.20;;;6.60;;
297;SDS011;133;49.626;9.680;2022-10-12T00:59:47;9.47;;;6.47;;
297;SDS011;133;49.626;9.680;2022-10-12T01:02:23;10.40;;;7.17;;
297;SDS011;133;49.626;9.680;2022-10-12T01:04:50;10.50;;;7.13;;
297;SDS011;133;49.626;9.680;2022-10-12T01:07:16;12.77;;;7.33;;
297;SDS011;133;49.626;9.680;2022-10-12T01:09:42;9.13;;;7.20;;
297;SDS011;133;49.626;9.680;2022-10-12T01:12:07;9.70;;;6.53;;
297;SDS011;133;49.626;9.680;2022-10-12T01:14:34;12.90;;;6.00;;
297;SDS011;133;49.626;9.680;2022-10-12T01:31:07;9.53;;;6.13;;
297;SDS011;133;49.626;9.680;2022-10-12T01:33:51;11.13;;;7.57;;
297;SDS011;133;49.626;9.680;2022-10-12T01:36:35;11.00;;;7.43;;
297;SDS011;133;49.626;9.680;2022-10-12T01:44:18;10.57;;;6.27;;
297;SDS011;133;49.626;9.680;2022-10-12T01:46:48;11.70;;;6.70;;
297;SDS011;133;49.626;9.680;2022-10-12T01:49:16;7.90;;;6.50;;
297;SDS011;133;49.626;9.680;2022-10-12T01:57:43;5.43;;;5.10;;
297;SDS011;133;49.626;9.680;2022-10-12T02:00:13;10.00;;;5.67;;
297;SDS011;133;49.626;9.680;2022-10-12T02:02:51;9.50;;;5.70;;
297;SDS011;133;49.626;9.680;2022-10-12T02:05:23;8.20;;;5.33;;
297;SDS011;133;49.626;9.680;2022-10-12T02:11:13;10.10;;;5.77;;
297;SDS011;133;49.626;9.680;2022-10-12T02:13:46;9.80;;;4.83;;
297;SDS011;133;49.626;9.680;2022-10-12T02:16:19;8.27;;;5.80;;
297;SDS011;133;49.626;9.680;2022-10-12T02:18:50;7.50;;;5.67;;
297;SDS011;133;49.626;9.680;2022-10-12T02:21:19;10.87;;;6.83;;
297;SDS011;133;49.626;9.680;2022-10-12T02:23:48;7.70;;;7.03;;
297;SDS011;133;49.626;9.680;2022-10-12T02:26:17;7.90;;;6.13;;
297;SDS011;133;49.626;9.680;2022-10-12T02:28:45;10.70;;;7.33;;
297;SDS011;133;49.626;9.680;2022-10-12T02:33:43;12.63;;;6.30;;
297;SDS011;133;49.626;9.680;2022-10-12T02:36:26;10.40;;;5.37;;
297;SDS011;133;49.626;9.680;2022-10-12T02:39:07;8.07;;;5.83;;
297;SDS011;133;49.626;9.680;2022-10-12T02:41:45;12.60;;;6.63;;
297;SDS011;133;49.626;9.680;2022-10-12T02:44:14;11.20;;;6.60;;
297;SDS011;133;49.626;9.680;2022-10-12T02:46:44;9.37;;;5.57;;
297;SDS011;133;49.626;9.680;2022-10-12T02:49:12;10.70;;;5.90;;
297;SDS011;133;49.626;9.680;2022-10-12T02:51:39;16.10;;;6.30;;
297;SDS011;133;49.626;9.680;2022-10-12T02:54:07;11.73;;;6.97;;
297;SDS011;133;49.626;9.680;2022-10-12T02:56:33;10.10;;;6.40;;
297;SDS011;133;49.626;9.680;2022-10-12T02:59:05;15.90;;;6.43;;
297;SDS011;133;49.626;9.680;2022-10-12T03:01:31;6.37;;;5.63;;
297;SDS011;133;49.626;9.680;2022-10-12T03:03:56;12.40;;;6.10;;
297;SDS011;133;49.626;9.680;2022-10-12T03:06:22;9.03;;;6.47;;
297;SDS011;133;49.626;9.680;2022-10-12T03:08:48;10.30;;;5.70;;
297;SDS011;133;49.626;9.680;2022-10-12T03:11:13;12.03;;;5.73;;
297;SDS011;133;49.626;9.680;2022-10-12T03:13:39;7.50;;;5.30;;
297;SDS011;133;49.626;9.680;2022-10-12T03:16:08;6.83;;;5.43;;
297;SDS011;133;49.626;9.680;2022-10-12T03:18:35;8.70;;;6.00;;
297;SDS011;133;49.626;9.680;2022-10-12T03:21:02;10.43;;;6.37;;
297;SDS011;133;49.626;9.680;2022-10-12T03:23:28;13.77;;;6.50;;
297;SDS011;133;49.626;9.680;2022-10-12T03:25:53;10.90;;;5.47;;
297;SDS011;133;49.626;9.680;2022-10-12T03:28:19;9.33;;;5.60;;
297;SDS011;133;49.626;9.680;2022-10-12T03:30:44;14.27;;;6.97;;
297;SDS011;133;49.626;9.680;2022-10-12T03:33:10;9.97;;;6.40;;
297;SDS011;133;49.626;9.680;2022-10-12T03:35:37;11.63;;;6.30;;
297;SDS011;133;49.626;9.680;2022-10-12T03:38:03;8.67;;;5.63;;
297;SDS011;133;49.626;9.680;2022-10-12T03:40:28;8.00;;;5.83;;
297;SDS011;133;49.626;9.680;2022-10-12T03:42:54;11.90;;;6.03;;
297;SDS011;133;49.626;9.680;2022-10-12T03:45:20;7.30;;;5.67;;
297;SDS011;133;49.626;9.680;2022-10-12T03:47:46;6.97;;;5.53;;
297;SDS011;133;49.626;9.680;2022-10-12T03:50:12;8.73;;;5.30;;
297;SDS011;133;49.626;9.680;2022-10-12T03:52:37;10.70;;;5.07;;
297;SDS011;133;49.626;9.680;2022-10-12T03:55:03;9.77;;;5.53;;
297;SDS011;133;49.626;9.680;2022-10-12T03:57:29;11.00;;;5.37;;
297;SDS011;133;49.626;9.680;2022-10-12T03:59:55;6.93;;;5.20;;
297;SDS011;133;49.626;9.680;2022-10-12T04:02:20;7.27;;;5.07;;
297;SDS011;133;49.626;9.680;2022-10-12T04:04:46;8.07;;;5.20;;
297;SDS011;133;49.626;9.680;2022-10-12T04:07:11;5.87;;;5.00;;
297;SDS011;133;49.626;9.680;2022-10-12T04:09:37;9.37;;;6.07;;
297;SDS011;133;49.626;9.680;2022-10-12T04:12:03;8.47;;;5.93;;
297;SDS011;133;49.626;9.680;2022-10-12T04:14:28;11.97;;;5.80;;
297;SDS011;133;49.626;9.680;2022-10-12T04:16:54;14.30;;;5.70;;
297;SDS011;133;49.626;9.680;2022-10-12T04:19:20;6.80;;;4.93;;
297;SDS011;133;49.626;9.680;2022-10-12T04:21:46;6.23;;;5.50;;
297;SDS011;133;49.626;9.680;2022-10-12T04:24:12;6.23;;;5.20;;
297;SDS011;133;49.626;9.680;2022-10-12T04:26:37;9.70;;;5.07;;
297;SDS011;133;49.626;9.680;2022-10-12T04:29:03;9.30;;;5.60;;
297;SDS011;133;49.626;9.680;2022-10-12T04:31:29;7.40;;;6.27;;
297;SDS011;133;49.626;9.680;2022-10-12T04:33:55;8.30;;;6.30;;
297;SDS011;133;49.626;9.680;2022-10-12T04:36:22;8.17;;;5.63;;
297;SDS011;133;49.626;9.680;2022-10-12T04:38:48;8.60;;;5.63;;
297;SDS011;133;49.626;9.680;2022-10-12T04:41:14;5.80;;;5.43;;
297;SDS011;133;49.626;9.680;2022-10-12T04:43:39;10.03;;;6.23;;
297;SDS011;133;49.626;9.680;2022-10-12T04:46:06;12.00;;;6.00;;
297;SDS011;133;49.626;9.680;2022-10-12T04:48:31;8.10;;;5.70;;
297;SDS011;133;49.626;9.680;2022-10-12T04:50:57;10.67;;;7.30;;
297;SDS011;133;49.626;9.680;2022-10-12T04:53:23;8.93;;;5.50;;
297;SDS011;133;49.626;9.680;2022-10-12T04:55:48;15.10;;;5.90;;
297;SDS011;133;49.626;9.680;2022-10-12T04:58:14;10.77;;;6.53;;
297;SDS011;133;49.626;9.680;2022-10-12T05:00:39;10.27;;;5.50;;
297;SDS011;133;49.626;9.680;2022-10-12T05:03:05;10.83;;;7.17;;
297;SDS011;133;49.626;9.680;2022-10-12T05:05:31;7.73;;;5.63;;
297;SDS011;133;49.626;9.680;2022-10-12T05:07:58;7.13;;;5.50;;
297;SDS011;133;49.626;9.680;2022-10-12T05:10:24;9.13;;;6.73;;
297;SDS011;133;49.626;9.680;2022-10-12T05:12:50;7.20;;;6.20;;
297;SDS011;133;49.626;9.680;2022-10-12T05:15:15;7.10;;;5.83;;
297;SDS011;133;49.626;9.680;2022-10-12T05:17:41;7.00;;;6.37;;
297;SDS011;133;49.626;9.680;2022-10-12T05:20:06;7.37;;;5.53;;
297;SDS011;133;49.626;9.680;2022-10-12T05:22:33;8.77;;;5.70;;
297;SDS011;133;49.626;9.680;2022-10-12T05:24:58;9.33;;;6.43;;
297;SDS011;133;49.626;9.680;2022-10-12T05:27:24;6.80;;;5.80;;
297;SDS011;133;49.626;9.680;2022-10-12T05:29:49;9.03;;;5.10;;
297;SDS011;133;49.626;9.680;2022-10-12T05:32:15;10.80;;;6.53;;
297;SDS011;133;49.626;9.680;2022-10-12T05:34:41;13.73;;;6.80;;
297;SDS011;133;49.626;9.680;2022-10-12T05:37:07;8.93;;;6.83;;
297;SDS011;133;49.626;9.680;2022-10-12T05:39:33;9.47;;;6.93;;
297;SDS011;133;49.626;9.680;2022-10-12T05:42:00;8.57;;;6.70;;
297;SDS011;133;49.626;9.680;2022-10-12T05:44:26;8.50;;;6.23;;
297;SDS011;133;49.626;9.680;2022-10-12T05:46:52;10.33;;;6.57;;
297;SDS011;133;49.626;9.680;2022-10-12T05:49:17;8.57;;;5.47;;
297;SDS011;133;49.626;9.680;2022-10-12T05:51:43;9.17;;;5.90;;
297;SDS011;133;49.626;9.680;2022-10-12T05:54:08;8.50;;;6.10;;
297;SDS011;133;49.626;9.680;2022-10-12T05:56:34;6.07;;;5.17;;
297;SDS011;133;49.626;9.680;2022-10-12T05:58:59;10.33;;;5.83;;
297;SDS011;133;49.626;9.680;2022-10-12T06:01:25;8.57;;;5.90;;
297;SDS011;133;49.626;9.680;2022-10-12T06:03:51;10.83;;;6.67;;
297;SDS011;133;49.626;9.680;2022-10-12T06:06:18;25.40;;;14.17;;
297;SDS011;133;49.626;9.680;2022-10-12T06:08:44;21.60;;;10.77;;
297;SDS011;133;49.626;9.680;2022-10-12T06:11:10;10.53;;;7.70;;
297;SDS011;133;49.626;9.680;2022-10-12T06:13:35;10.33;;;6.20;;
297;SDS011;133;49.626;9.680;2022-10-12T06:16:01;16.73;;;8.43;;
297;SDS011;133;49.626;9.680;2022-10-12T06:18:27;9.10;;;5.73;;
297;SDS011;133;49.626;9.680;2022-10-12T06:20:53;8.73;;;5.80;;
297;SDS011;133;49.626;9.680;2022-10-12T06:23:19;16.23;;;6.13;;
297;SDS011;133;49.626;9.680;2022-10-12T06:25:45;4.87;;;4.57;;
297;SDS011;133;49.626;9.680;2022-10-12T06:28:13;7.07;;;5.50;;
297;SDS011;133;49.626;9.680;2022-10-12T06:30:41;7.83;;;5.87;;
297;SDS011;133;49.626;9.680;2022-10-12T06:33:07;10.80;;;6.30;;
297;SDS011;133;49.626;9.680;2022-10-12T06:35:33;12.33;;;6.70;;
297;SDS011;133;49.626;9.680;2022-10-12T06:37:59;8.10;;;5.33;;
297;SDS011;133;49.626;9.680;2022-10-12T06:40:24;9.60;;;6.57;;
297;SDS011;133;49.626;9.680;2022-10-12T06:42:50;13.20;;;9.10;;
297;SDS011;133;49.626;9.680;2022-10-12T06:45:16;13.70;;;6.60;;
297;SDS011;133;49.626;9.680;2022-10-12T06:47:42;8.80;;;5.77;;
297;SDS011;133;49.626;9.680;2022-10-12T06:50:08;7.40;;;6.13;;
297;SDS011;133;49.626;9.680;2022-10-12T06:52:35;9.07;;;5.87;;
297;SDS011;133;49.626;9.680;2022-10-12T06:55:01;7.90;;;6.13;;
297;SDS011;133;49.626;9.680;2022-10-12T06:57:27;5.47;;;5.17;;
297;SDS011;133;49.626;9.680;2022-10-12T06:59:53;11.00;;;6.50;;
297;SDS011;133;49.626;9.680;2022-10-12T07:02:18;14.80;;;8.60;;
297;SDS011;133;49.626;9.680;2022-10-12T07:04:48;14.83;;;7.60;;
297;SDS011;133;49.626;9.680;2022-10-12T07:07:15;13.30;;;8.10;;
297;SDS011;133;49.626;9.680;2022-10-12T07:09:41;12.20;;;7.80;;
297;SDS011;133;49.626;9.680;2022-10-12T07:12:07;19.37;;;8.27;;
297;SDS011;133;49.626;9.680;2022-10-12T07:14:32;10.40;;;7.20;;
297;SDS011;133;49.626;9.680;2022-10-12T07:16:58;11.30;;;6.90;;
297;SDS011;133;49.626;9.680;2022-10-12T07:19:23;10.60;;;7.00;;
297;SDS011;133;49.626;9.680;2022-10-12T07:21:49;6.70;;;6.30;;
297;SDS011;133;49.626;9.680;2022-10-12T07:24:14;11.97;;;6.70;;
297;SDS011;133;49.626;9.680;2022-10-12T07:26:40;9.00;;;5.97;;
297;SDS011;133;49.626;9.680;2022-10-12T07:29:06;9.37;;;6.57;;
297;SDS011;133;49.626;9.680;2022-10-12T07:31:31;9.97;;;6.60;;
297;SDS011;133;49.626;9.680;2022-10-12T07:33:57;7.37;;;5.90;;
297;SDS011;133;49.626;9.680;2022-10-12T07:36:23;11.23;;;6.03;;
297;SDS011;133;49.626;9.680;2022-10-12T07:38:48;9.10;;;6.53;;
297;SDS011;133;49.626;9.680;2022-10-12T07:41:14;7.43;;;5.80;;
297;SDS011;133;49.626;9.680;2022-10-12T07:43:40;14.33;;;6.53;;
297;SDS011;133;49.626;9.680;2022-10-12T07:46:06;13.57;;;6.20;;
297;SDS011;133;49.626;9.680;2022-10-12T07:48:32;10.97;;;5.97;;
297;SDS011;133;49.626;9.680;2022-10-12T07:51:02;5.87;;;5.47;;
297;SDS011;133;49.626;9.680;2022-10-12T07:53:28;12.90;;;6.80;;
297;SDS011;133;49.626;9.680;2022-10-12T07:55:58;16.03;;;6.53;;
297;SDS011;133;49.626;9.680;2022-10-12T07:58:29;8.33;;;5.10;;
297;SDS011;133;49.626;9.680;2022-10-12T08:00:55;11.00;;;6.47;;
297;SDS011;133;49.626;9.680;2022-10-12T08:03:21;8.27;;;5.10;;
297;SDS011;133;49.626;9.680;2022-10-12T08:05:46;6.30;;;5.53;;
297;SDS011;133;49.626;9.680;2022-10-12T08:08:12;11.10;;;6.90;;
297;SDS011;133;49.626;9.680;2022-10-12T08:10:38;9.83;;;6.03;;
297;SDS011;133;49.626;9.680;2022-10-12T08:13:03;12.97;;;6.10;;
297;SDS011;133;49.626;9.680;2022-10-12T08:15:29;12.30;;;7.07;;
297;SDS011;133;49.626;9.680;2022-10-12T08:17:55;14.60;;;6.77;;
297;SDS011;133;49.626;9.680;2022-10-12T08:20:20;9.33;;;7.20;;
297;SDS011;133;49.626;9.680;2022-10-12T08:22:46;11.20;;;6.23;;
297;SDS011;133;49.626;9.680;2022-10-12T08:25:12;12.40;;;5.73;;
297;SDS011;133;49.626;9.680;2022-10-12T08:27:37;14.03;;;6.47;;
297;SDS011;133;49.626;9.680;2022-10-12T08:30:04;9.13;;;6.13;;
297;SDS011;133;49.626;9.680;2022-10-12T08:32:30;9.50;;;6.03;;
297;SDS011;133;49.626;9.680;2022-10-12T08:34:56;12.33;;;6.40;;
297;SDS011;133;49.626;9.680;2022-10-12T08:37:22;11.57;;;5.90;;
297;SDS011;133;49.626;9.680;2022-10-12T08:39:48;8.40;;;6.33;;
297;SDS011;133;49.626;9.680;2022-10-12T08:47:44;8.60;;;6.50;;
297;SDS011;133;49.626;9.680;2022-10-12T08:50:26;13.63;;;6.67;;
297;SDS011;133;49.626;9.680;2022-10-12T08:53:27;12.60;;;6.67;;
297;SDS011;133;49.626;9.680;2022-10-12T08:55:52;14.40;;;7.23;;
297;SDS011;133;49.626;9.680;2022-10-12T08:58:24;11.00;;;7.10;;
297;SDS011;133;49.626;9.680;2022-10-12T09:00:58;12.77;;;6.33;;
297;SDS011;133;49.626;9.680;2022-10-12T09:03:51;10.33;;;6.70;;
297;SDS011;133;49.626;9.680;2022-10-12T09:06:21;12.07;;;7.10;;
297;SDS011;133;49.626;9.680;2022-10-12T09:16:20;13.33;;;8.30;;
297;SDS011;133;49.626;9.680;2022-10-12T09:18:53;10.43;;;7.03;;
297;SDS011;133;49.626;9.680;2022-10-12T09:21:22;11.23;;;7.60;;
297;SDS011;133;49.626;9.680;2022-10-12T09:23:50;10.07;;;8.10;;
297;SDS011;133;49.626;9.680;2022-10-12T09:26:19;13.40;;;8.00;;
297;SDS011;133;49.626;9.680;2022-10-12T09:28:58;15.80;;;8.43;;
297;SDS011;133;49.626;9.680;2022-10-12T09:34:12;14.53;;;8.03;;
297;SDS011;133;49.626;9.680;2022-10-12T09:36:39;12.20;;;8.10;;
297;SDS011;133;49.626;9.680;2022-10-12T09:39:10;14.90;;;8.00;;
297;SDS011;133;49.626;9.680;2022-10-12T09:41:43;9.87;;;7.60;;
297;SDS011;133;49.626;9.680;2022-10-12T09:46:53;9.20;;;7.07;;
297;SDS011;133;49.626;9.680;2022-10-12T09:49:21;9.93;;;8.03;;
297;SDS011;133;49.626;9.680;2022-10-12T09:51:47;11.50;;;7.80;;
297;SDS011;133;49.626;9.680;2022-10-12T09:54:23;17.50;;;9.03;;
297;SDS011;133;49.626;9.680;2022-10-12T09:56:51;14.70;;;8.10;;
297;SDS011;133;49.626;9.680;2022-10-12T09:59:25;13.87;;;9.23;;
297;SDS011;133;49.626;9.680;2022-10-12T10:04:38;13.87;;;7.90;;
297;SDS011;133;49.626;9.680;2022-10-12T10:12:58;15.80;;;8.30;;
297;SDS011;133;49.626;9.680;2022-10-12T10:15:36;13.97;;;9.30;;
297;SDS011;133;49.626;9.680;2022-10-12T10:18:06;17.07;;;9.43;;
297;SDS011;133;49.626;9.680;2022-10-12T10:20:53;12.97;;;9.30;;
297;SDS011;133;49.626;9.680;2022-10-12T10:23:25;16.03;;;9.27;;
297;SDS011;133;49.626;9.680;2022-10-12T10:25:54;14.10;;;9.10;;
297;SDS011;133;49.626;9.680;2022-10-12T10:28:27;11.03;;;8.80;;
297;SDS011;133;49.626;9.680;2022-10-12T10:30:59;14.83;;;9.70;;
297;SDS011;133;49.626;9.680;2022-10-12T10:33:27;14.70;;;10.13;;
297;SDS011;133;49.626;9.680;2022-10-12T10:41:18;15.23;;;9.73;;
297;SDS011;133;49.626;9.680;2022-10-12T10:43:47;13.00;;;9.97;;
297;SDS011;133;49.626;9.680;2022-10-12T10:46:14;13.50;;;11.63;;
297;SDS011;133;49.626;9.680;2022-10-12T10:48:54;15.93;;;10.43;;
297;SDS011;133;49.626;9.680;2022-10-12T10:51:40;20.13;;;11.33;;
297;SDS011;133;49.626;9.680;2022-10-12T10:56:52;14.43;;;11.23;;
297;SDS011;133;49.626;9.680;2022-10-12T11:02:02;17.53;;;12.77;;
297;SDS011;133;49.626;9.680;2022-10-12T11:04:57;16.73;;;11.73;;
297;SDS011;133;49.626;9.680;2022-10-12T11:25:28;16.33;;;9.50;;
297;SDS011;133;49.626;9.680;2022-10-12T11:28:22;14.20;;;9.80;;
297;SDS011;133;49.626;9.680;2022-10-12T11:30:54;12.60;;;10.10;;
297;SDS011;133;49.626;9.680;2022-10-12T11:33:25;8.90;;;8.30;;
297;SDS011;133;49.626;9.680;2022-10-12T11:35:55;14.60;;;8.57;;
297;SDS011;133;49.626;9.680;2022-10-12T11:41:07;11.00;;;8.53;;
297;SDS011;133;49.626;9.680;2022-10-12T11:43:59;15.00;;;9.63;;
297;SDS011;133;49.626;9.680;2022-10-12T11:46:51;13.13;;;9.37;;
297;SDS011;133;49.626;9.680;2022-10-12T11:49:31;9.00;;;8.27;;
297;SDS011;133;49.626;9.680;2022-10-12T11:52:04;10.83;;;7.50;;
297;SDS011;133;49.626;9.680;2022-10-12T11:54:36;9.80;;;8.20;;
297;SDS011;133;49.626;9.680;2022-10-12T11:57:11;9.63;;;9.13;;
297;SDS011;133;49.626;9.680;2022-10-12T12:02:44;11.10;;;8.30;;
297;SDS011;133;49.626;9.680;2022-10-12T12:05:18;12.60;;;8.67;;
297;SDS011;133;49.626;9.680;2022-10-12T12:07:48;10.07;;;9.13;;
297;SDS011;133;49.626;9.680;2022-10-12T12:15:32;13.57;;;8.63;;
297;SDS011;133;49.626;9.680;2022-10-12T12:18:24;12.93;;;10.10;;
297;SDS011;133;49.626;9.680;2022-10-12T12:21:26;13.07;;;11.00;;
297;SDS011;133;49.626;9.680;2022-10-12T12:23:51;12.40;;;10.13;;
297;SDS011;133;49.626;9.680;2022-10-12T12:26:19;13.33;;;9.80;;
297;SDS011;133;49.626;9.680;2022-10-12T12:31:54;11.90;;;8.80;;
297;SDS011;133;49.626;9.680;2022-10-12T12:34:23;16.17;;;9.37;;
297;SDS011;133;49.626;9.680;2022-10-12T12:36:49;12.23;;;10.10;;
297;SDS011;133;49.626;9.680;2022-10-12T12:39:32;12.07;;;9.47;;
297;SDS011;133;49.626;9.680;2022-10-12T12:41:59;23.03;;;9.50;;
297;SDS011;133;49.626;9.680;2022-10-12T12:52:34;12.23;;;10.20;;
297;SDS011;133;49.626;9.680;2022-10-12T13:04:14;14.80;;;10.40;;
297;SDS011;133;49.626;9.680;2022-10-12T13:19:46;18.43;;;11.13;;
297;SDS011;133;49.626;9.680;2022-10-12T13:22:41;14.07;;;10.33;;
297;SDS011;133;49.626;9.680;2022-10-12T13:25:20;13.17;;;9.80;;
297;SDS011;133;49.626;9.680;2022-10-12T13:27:52;12.40;;;10.60;;
297;SDS011;133;49.626;9.680;2022-10-12T13:30:25;13.00;;;11.63;;
297;SDS011;133;49.626;9.680;2022-10-12T13:38:32;18.23;;;11.77;;
297;SDS011;133;49.626;9.680;2022-10-12T13:41:03;13.30;;;11.03;;
297;SDS011;133;49.626;9.680;2022-10-12T13:46:00;16.90;;;10.80;;
297;SDS011;133;49.626;9.680;2022-10-12T13:48:27;14.90;;;11.47;;
297;SDS011;133;49.626;9.680;2022-10-12T13:50:55;15.60;;;11.27;;
297;SDS011;133;49.626;9.680;2022-10-12T13:53:26;14.67;;;11.57;;
297;SDS011;133;49.626;9.680;2022-10-12T13:58:38;16.13;;;11.27;;
297;SDS011;133;49.626;9.680;2022-10-12T14:01:05;12.00;;;10.37;;
297;SDS011;133;49.626;9.680;2022-10-12T14:03:35;16.50;;;12.40;;
297;SDS011;133;49.626;9.680;2022-10-12T14:09:51;14.97;;;12.33;;
297;SDS011;133;49.626;9.680;2022-10-12T14:12:20;13.73;;;11.83;;
297;SDS011;133;49.626;9.680;2022-10-12T14:14:46;15.37;;;12.27;;
297;SDS011;133;49.626;9.680;2022-10-12T14:17:14;16.20;;;12.47;;
297;SDS011;133;49.626;9.680;2022-10-12T14:19:42;15.83;;;11.07;;
297;SDS011;133;49.626;9.680;2022-10-12T14:22:11;16.37;;;12.00;;
297;SDS011;133;49.626;9.680;2022-10-12T14:25:06;15.83;;;12.60;;
297;SDS011;133;49.626;9.680;2022-10-12T14:30:37;16.43;;;11.73;;
297;SDS011;133;49.626;9.680;2022-10-12T14:35:40;18.13;;;12.60;;
297;SDS011;133;49.626;9.680;2022-10-12T14:47:09;14.80;;;11.73;;
297;SDS011;133;49.626;9.680;2022-10-12T14:49:47;17.00;;;11.90;;
297;SDS011;133;49.626;9.680;2022-10-12T14:52:19;18.87;;;13.00;;
297;SDS011;133;49.626;9.680;2022-10-12T14:55:17;16.90;;;12.70;;
297;SDS011;133;49.626;9.680;2022-10-12T14:57:45;17.50;;;13.23;;
297;SDS011;133;49.626;9.680;2022-10-12T15:00:13;18.60;;;12.57;;
297;SDS011;133;49.626;9.680;2022-10-12T15:02:40;19.63;;;12.33;;
297;SDS011;133;49.626;9.680;2022-10-12T15:05:08;18.53;;;11.97;;
297;SDS011;133;49.626;9.680;2022-10-12T15:07:35;15.80;;;11.60;;
297;SDS011;133;49.626;9.680;2022-10-12T15:10:01;15.83;;;12.20;;
297;SDS011;133;49.626;9.680;2022-10-12T15:12:28;12.97;;;11.20;;
297;SDS011;133;49.626;9.680;2022-10-12T15:14:54;12.73;;;11.40;;
297;SDS011;133;49.626;9.680;2022-10-12T15:17:22;16.07;;;12.37;;
297;SDS011;133;49.626;9.680;2022-10-12T15:19:48;16.50;;;11.23;;
297;SDS011;133;49.626;9.680;2022-10-12T15:22:19;14.33;;;12.40;;
297;SDS011;133;49.626;9.680;2022-10-12T15:24:50;15.30;;;12.30;;
297;SDS011;133;49.626;9.680;2022-10-12T15:27:18;18.33;;;12.50;;
297;SDS011;133;49.626;9.680;2022-10-12T15:29:43;16.50;;;13.30;;
297;SDS011;133;49.626;9.680;2022-10-12T15:32:10;17.53;;;12.33;;
297;SDS011;133;49.626;9.680;2022-10-12T15:34:37;19.10;;;14.60;;
297;SDS011;133;49.626;9.680;2022-10-12T15:37:03;23.50;;;13.03;;
297;SDS011;133;49.626;9.680;2022-10-12T15:39:29;16.87;;;12.80;;
297;SDS011;133;49.626;9.680;2022-10-12T15:41:54;17.40;;;12.37;;
297;SDS011;133;49.626;9.680;2022-10-12T15:44:20;16.57;;;13.33;;
297;SDS011;133;49.626;9.680;2022-10-12T15:46:48;17.27;;;12.80;;
297;SDS011;133;49.626;9.680;2022-10-12T15:49:15;18.03;;;13.80;;
297;SDS011;133;49.626;9.680;2022-10-12T15:51:45;20.30;;;13.30;;
297;SDS011;133;49.626;9.680;2022-10-12T15:54:12;18.40;;;12.13;;
297;SDS011;133;49.626;9.680;2022-10-12T15:56:38;15.20;;;12.77;;
297;SDS011;133;49.626;9.680;2022-10-12T15:59:04;17.57;;;12.90;;
297;SDS011;133;49.626;9.680;2022-10-12T16:01:30;17.70;;;12.60;;
297;SDS011;133;49.626;9.680;2022-10-12T16:03:58;14.93;;;12.23;;
297;SDS011;133;49.626;9.680;2022-10-12T16:06:24;15.63;;;12.40;;
297;SDS011;133;49.626;9.680;2022-10-12T16:08:50;16.10;;;11.73;;
297;SDS011;133;49.626;9.680;2022-10-12T16:11:16;15.40;;;11.93;;
297;SDS011;133;49.626;9.680;2022-10-12T16:13:43;21.87;;;12.70;;
297;SDS011;133;49.626;9.680;2022-10-12T16:16:14;21.70;;;13.03;;
297;SDS011;133;49.626;9.680;2022-10-12T16:18:40;16.07;;;12.50;;
297;SDS011;133;49.626;9.680;2022-10-12T16:21:05;16.07;;;12.90;;
297;SDS011;133;49.626;9.680;2022-10-12T16:23:32;17.57;;;12.53;;
297;SDS011;133;49.626;9.680;2022-10-12T16:26:01;19.57;;;13.10;;
297;SDS011;133;49.626;9.680;2022-10-12T16:28:31;18.23;;;14.17;;
297;SDS011;133;49.626;9.680;2022-10-12T16:30:57;16.93;;;12.77;;
297;SDS011;133;49.626;9.680;2022-10-12T16:33:23;20.23;;;13.90;;
297;SDS011;133;49.626;9.680;2022-10-12T16:35:49;18.93;;;13.77;;
297;SDS011;133;49.626;9.680;2022-10-12T16:38:15;18.07;;;14.50;;
297;SDS011;133;49.626;9.680;2022-10-12T16:40:43;18.40;;;12.90;;
297;SDS011;133;49.626;9.680;2022-10-12T16:43:10;20.40;;;14.90;;
297;SDS011;133;49.626;9.680;2022-10-12T16:45:35;19.00;;;13.43;;
297;SDS011;133;49.626;9.680;2022-10-12T16:48:01;23.00;;;15.63;;
297;SDS011;133;49.626;9.680;2022-10-12T16:50:27;20.30;;;15.40;;
297;SDS011;133;49.626;9.680;2022-10-12T16:52:53;19.90;;;14.20;;
297;SDS011;133;49.626;9.680;2022-10-12T16:55:19;19.83;;;14.33;;
297;SDS011;133;49.626;9.680;2022-10-12T16:57:45;23.90;;;15.57;;
297;SDS011;133;49.626;9.680;2022-10-12T17:00:12;21.50;;;16.47;;
297;SDS011;133;49.626;9.680;2022-10-12T17:02:40;26.53;;;18.50;;
297;SDS011;133;49.626;9.680;2022-10-12T17:05:06;29.33;;;22.20;;
297;SDS011;133;49.626;9.680;2022-10-12T17:07:32;29.70;;;21.70;;
297;SDS011;133;49.626;9.680;2022-10-12T17:09:58;30.50;;;19.90;;
297;SDS011;133;49.626;9.680;2022-10-12T17:12:24;28.20;;;19.10;;
297;SDS011;133;49.626;9.680;2022-10-12T17:14:50;29.20;;;18.40;;
297;SDS011;133;49.626;9.680;2022-10-12T17:17:16;26.00;;;16.73;;
297;SDS011;133;49.626;9.680;2022-10-12T17:19:42;26.50;;;17.87;;
297;SDS011;133;49.626;9.680;2022-10-12T17:22:08;24.40;;;16.27;;
297;SDS011;133;49.626;9.680;2022-10-12T17:24:36;23.10;;;16.23;;
297;SDS011;133;49.626;9.680;2022-10-12T17:27:03;25.53;;;18.10;;
297;SDS011;133;49.626;9.680;2022-10-12T17:29:30;29.93;;;18.00;;
297;SDS011;133;49.626;9.680;2022-10-12T17:31:57;25.10;;;16.37;;
297;SDS011;133;49.626;9.680;2022-10-12T17:34:29;24.83;;;16.00;;
297;SDS011;133;49.626;9.680;2022-10-12T17:36:57;30.53;;;17.40;;
297;SDS011;133;49.626;9.680;2022-10-12T17:39:25;27.10;;;16.33;;
297;SDS011;133;49.626;9.680;2022-10-12T17:41:52;29.87;;;17.23;;
297;SDS011;133;49.626;9.680;2022-10-12T17:44:18;29.30;;;18.00;;
297;SDS011;133;49.626;9.680;2022-10-12T17:46:44;25.60;;;16.40;;
297;SDS011;133;49.626;9.680;2022-10-12T17:49:11;28.60;;;18.50;;
297;SDS011;133;49.626;9.680;2022-10-12T17:51:38;34.70;;;18.50;;
297;SDS011;133;49.626;9.680;2022-10-12T17:54:05;27.70;;;17.40;;
297;SDS011;133;49.626;9.680;2022-10-12T17:56:31;28.40;;;18.57;;
297;SDS011;133;49.626;9.680;2022-10-12T17:58:58;31.07;;;18.97;;
297;SDS011;133;49.626;9.680;2022-10-12T18:01:26;30.20;;;17.87;;
297;SDS011;133;49.626;9.680;2022-10-12T18:03:52;31.10;;;17.37;;
297;SDS011;133;49.626;9.680;2022-10-12T18:06:19;27.43;;;18.33;;
297;SDS011;133;49.626;9.680;2022-10-12T18:08:48;33.07;;;20.70;;
297;SDS011;133;49.626;9.680;2022-10-12T18:11:15;31.97;;;21.37;;
297;SDS011;133;49.626;9.680;2022-10-12T18:13:46;33.90;;;19.53;;
297;SDS011;133;49.626;9.680;2022-10-12T18:16:14;30.70;;;19.30;;
297;SDS011;133;49.626;9.680;2022-10-12T18:18:41;28.80;;;18.77;;
297;SDS011;133;49.626;9.680;2022-10-12T18:21:07;26.90;;;18.60;;